sensor_id;sensor_type;location;lat;lon;timestamp;P1;durP1;ratioP1;P2;durP2;ratioP2
11386;SDS011;5748;53.102;8.456;2023-06-10T00:02:05;1.30;;;1.20;;
11386;SDS011;5748;53.102;8.456;2023-06-10T00:04:33;1.13;;;1.10;;
11386;SDS011;5748;53.102;8.456;2023-06-10T00:07:01;1.53;;;1.30;;
11386;SDS011;5748;53.102;8.456;2023-06-10T00:09:29;1.40;;;1.30;;
11386;SDS011;5748;53.102;8.456;2023-06-10T00:11:56;1.47;;;1.37;;
11386;SDS011;5748;53.102;8.456;2023-06-10T00:14:24;1.60;;;1.20;;
11386;SDS011;5748;53.102;8.456;2023-06-10T00:16:53;1.50;;;1.27;;
11386;SDS011;5748;53.102;8.456;2023-06-10T00:19:20;1.20;;;1.10;;
11386;SDS011;5748;53.102;8.456;2023-06-10T00:21:50;1.23;;;1.13;;
11386;SDS011;5748;53.102;8.456;2023-06-10T00:24:18;1.43;;;1.33;;
11386;SDS011;5748;53.102;8.456;2023-06-10T00:26:45;1.50;;;1.30;;
11386;SDS011;5748;53.102;8.456;2023-06-10T00:29:12;2.30;;;1.43;;
11386;SDS011;5748;53.102;8.456;2023-06-10T00:31:39;1.30;;;1.20;;
11386;SDS011;5748;53.102;8.456;2023-06-10T00:34:08;2.17;;;1.60;;
11386;SDS011;5748;53.102;8.456;2023-06-10T00:36:34;1.33;;;1.23;;
11386;SDS011;5748;53.102;8.456;2023-06-10T00:39:01;1.33;;;1.17;;
11386;SDS011;5748;53.102;8.456;2023-06-10T00:41:29;3.00;;;1.30;;
11386;SDS011;5748;53.102;8.456;2023-06-10T00:43:56;1.50;;;1.40;;
11386;SDS011;5748;53.102;8.456;2023-06-10T00:46:24;1.50;;;1.40;;
11386;SDS011;5748;53.102;8.456;2023-06-10T00:48:52;1.33;;;1.13;;
11386;SDS011;5748;53.102;8.456;2023-06-10T00:51:21;1.50;;;1.37;;
11386;SDS011;5748;53.102;8.456;2023-06-10T00:53:49;1.30;;;1.20;;
11386;SDS011;5748;53.102;8.456;2023-06-10T00:56:16;1.97;;;1.50;;
11386;SDS011;5748;53.102;8.456;2023-06-10T00:58:43;1.50;;;1.30;;
11386;SDS011;5748;53.102;8.456;2023-06-10T01:01:10;2.30;;;1.40;;
11386;SDS011;5748;53.102;8.456;2023-06-10T01:03:37;1.47;;;1.30;;
11386;SDS011;5748;53.102;8.456;2023-06-10T01:06:06;1.30;;;1.20;;
11386;SDS011;5748;53.102;8.456;2023-06-10T01:08:49;1.20;;;1.10;;
11386;SDS011;5748;53.102;8.456;2023-06-10T01:11:23;1.60;;;1.27;;
11386;SDS011;5748;53.102;8.456;2023-06-10T01:13:55;2.13;;;1.17;;
11386;SDS011;5748;53.102;8.456;2023-06-10T01:16:24;1.20;;;1.10;;
11386;SDS011;5748;53.102;8.456;2023-06-10T01:18:51;2.03;;;1.43;;
11386;SDS011;5748;53.102;8.456;2023-06-10T01:21:21;1.37;;;1.23;;
11386;SDS011;5748;53.102;8.456;2023-06-10T01:23:49;1.53;;;1.30;;
11386;SDS011;5748;53.102;8.456;2023-06-10T01:26:18;1.57;;;1.47;;
11386;SDS011;5748;53.102;8.456;2023-06-10T01:28:51;2.23;;;1.40;;
11386;SDS011;5748;53.102;8.456;2023-06-10T01:31:28;1.57;;;1.47;;
11386;SDS011;5748;53.102;8.456;2023-06-10T01:34:05;1.67;;;1.30;;
11386;SDS011;5748;53.102;8.456;2023-06-10T01:36:36;1.67;;;1.27;;
11386;SDS011;5748;53.102;8.456;2023-06-10T01:39:04;1.60;;;1.50;;
11386;SDS011;5748;53.102;8.456;2023-06-10T01:41:34;1.47;;;1.20;;
11386;SDS011;5748;53.102;8.456;2023-06-10T01:44:02;1.50;;;1.40;;
11386;SDS011;5748;53.102;8.456;2023-06-10T01:46:29;1.40;;;1.17;;
11386;SDS011;5748;53.102;8.456;2023-06-10T01:48:56;1.80;;;1.50;;
11386;SDS011;5748;53.102;8.456;2023-06-10T01:51:23;2.07;;;1.63;;
11386;SDS011;5748;53.102;8.456;2023-06-10T01:53:51;1.67;;;1.40;;
11386;SDS011;5748;53.102;8.456;2023-06-10T01:56:18;1.70;;;1.37;;
11386;SDS011;5748;53.102;8.456;2023-06-10T01:58:45;1.80;;;1.50;;
11386;SDS011;5748;53.102;8.456;2023-06-10T02:01:13;1.47;;;1.30;;
11386;SDS011;5748;53.102;8.456;2023-06-10T02:03:40;1.97;;;1.47;;
11386;SDS011;5748;53.102;8.456;2023-06-10T02:06:07;1.93;;;1.33;;
11386;SDS011;5748;53.102;8.456;2023-06-10T02:08:34;1.93;;;1.40;;
11386;SDS011;5748;53.102;8.456;2023-06-10T02:11:02;1.70;;;1.37;;
11386;SDS011;5748;53.102;8.456;2023-06-10T02:13:29;1.90;;;1.70;;
11386;SDS011;5748;53.102;8.456;2023-06-10T02:15:56;1.67;;;1.43;;
11386;SDS011;5748;53.102;8.456;2023-06-10T02:18:22;1.40;;;1.30;;
11386;SDS011;5748;53.102;8.456;2023-06-10T02:20:52;1.37;;;1.23;;
11386;SDS011;5748;53.102;8.456;2023-06-10T02:23:19;1.53;;;1.43;;
11386;SDS011;5748;53.102;8.456;2023-06-10T02:25:45;1.33;;;1.23;;
11386;SDS011;5748;53.102;8.456;2023-06-10T02:28:14;1.40;;;1.30;;
11386;SDS011;5748;53.102;8.456;2023-06-10T02:30:41;1.50;;;1.40;;
11386;SDS011;5748;53.102;8.456;2023-06-10T02:33:08;1.63;;;1.43;;
11386;SDS011;5748;53.102;8.456;2023-06-10T02:35:36;1.60;;;1.50;;
11386;SDS011;5748;53.102;8.456;2023-06-10T02:38:03;2.10;;;1.70;;
11386;SDS011;5748;53.102;8.456;2023-06-10T02:40:30;1.63;;;1.50;;
11386;SDS011;5748;53.102;8.456;2023-06-10T02:42:57;1.60;;;1.50;;
11386;SDS011;5748;53.102;8.456;2023-06-10T02:45:25;1.50;;;1.40;;
11386;SDS011;5748;53.102;8.456;2023-06-10T02:47:52;1.43;;;1.33;;
11386;SDS011;5748;53.102;8.456;2023-06-10T02:50:19;1.60;;;1.50;;
11386;SDS011;5748;53.102;8.456;2023-06-10T02:52:46;2.00;;;1.60;;
11386;SDS011;5748;53.102;8.456;2023-06-10T02:55:14;1.80;;;1.70;;
11386;SDS011;5748;53.102;8.456;2023-06-10T02:57:41;1.93;;;1.60;;
11386;SDS011;5748;53.102;8.456;2023-06-10T03:00:09;2.00;;;1.60;;
11386;SDS011;5748;53.102;8.456;2023-06-10T03:02:40;1.97;;;1.50;;
11386;SDS011;5748;53.102;8.456;2023-06-10T03:05:07;2.33;;;1.50;;
11386;SDS011;5748;53.102;8.456;2023-06-10T03:07:35;1.90;;;1.70;;
11386;SDS011;5748;53.102;8.456;2023-06-10T03:10:03;2.30;;;1.70;;
11386;SDS011;5748;53.102;8.456;2023-06-10T03:12:31;1.57;;;1.47;;
11386;SDS011;5748;53.102;8.456;2023-06-10T03:14:58;2.93;;;2.17;;
11386;SDS011;5748;53.102;8.456;2023-06-10T03:17:25;2.00;;;1.83;;
11386;SDS011;5748;53.102;8.456;2023-06-10T03:19:54;2.50;;;1.97;;
11386;SDS011;5748;53.102;8.456;2023-06-10T03:22:21;2.53;;;1.90;;
11386;SDS011;5748;53.102;8.456;2023-06-10T03:24:48;2.40;;;2.20;;
11386;SDS011;5748;53.102;8.456;2023-06-10T03:27:16;2.73;;;2.20;;
11386;SDS011;5748;53.102;8.456;2023-06-10T03:29:43;2.43;;;2.23;;
11386;SDS011;5748;53.102;8.456;2023-06-10T03:32:10;2.37;;;2.17;;
11386;SDS011;5748;53.102;8.456;2023-06-10T03:34:37;2.90;;;2.60;;
11386;SDS011;5748;53.102;8.456;2023-06-10T03:37:06;2.77;;;2.30;;
11386;SDS011;5748;53.102;8.456;2023-06-10T03:39:33;2.60;;;2.40;;
11386;SDS011;5748;53.102;8.456;2023-06-10T03:41:59;2.37;;;2.17;;
11386;SDS011;5748;53.102;8.456;2023-06-10T03:44:26;2.63;;;2.30;;
11386;SDS011;5748;53.102;8.456;2023-06-10T03:46:54;2.50;;;2.30;;
11386;SDS011;5748;53.102;8.456;2023-06-10T03:49:21;2.23;;;2.03;;
11386;SDS011;5748;53.102;8.456;2023-06-10T03:51:52;2.27;;;1.83;;
11386;SDS011;5748;53.102;8.456;2023-06-10T03:54:20;1.97;;;1.77;;
11386;SDS011;5748;53.102;8.456;2023-06-10T03:56:48;1.90;;;1.70;;
11386;SDS011;5748;53.102;8.456;2023-06-10T03:59:15;2.03;;;1.83;;
11386;SDS011;5748;53.102;8.456;2023-06-10T04:01:42;2.30;;;1.87;;
11386;SDS011;5748;53.102;8.456;2023-06-10T04:04:09;2.10;;;1.90;;
11386;SDS011;5748;53.102;8.456;2023-06-10T04:06:39;2.00;;;1.80;;
11386;SDS011;5748;53.102;8.456;2023-06-10T04:09:08;2.10;;;1.80;;
11386;SDS011;5748;53.102;8.456;2023-06-10T04:11:37;1.87;;;1.63;;
11386;SDS011;5748;53.102;8.456;2023-06-10T04:14:04;1.87;;;1.70;;
11386;SDS011;5748;53.102;8.456;2023-06-10T04:16:31;1.53;;;1.43;;
11386;SDS011;5748;53.102;8.456;2023-06-10T04:18:58;2.43;;;1.80;;
11386;SDS011;5748;53.102;8.456;2023-06-10T04:21:25;1.60;;;1.50;;
11386;SDS011;5748;53.102;8.456;2023-06-10T04:23:52;2.07;;;1.60;;
11386;SDS011;5748;53.102;8.456;2023-06-10T04:26:19;1.50;;;1.40;;
11386;SDS011;5748;53.102;8.456;2023-06-10T04:28:48;2.10;;;1.70;;
11386;SDS011;5748;53.102;8.456;2023-06-10T04:31:15;2.13;;;1.80;;
11386;SDS011;5748;53.102;8.456;2023-06-10T04:33:42;2.10;;;1.70;;
11386;SDS011;5748;53.102;8.456;2023-06-10T04:36:09;1.73;;;1.50;;
11386;SDS011;5748;53.102;8.456;2023-06-10T04:38:36;2.37;;;1.80;;
11386;SDS011;5748;53.102;8.456;2023-06-10T04:41:03;2.20;;;1.63;;
11386;SDS011;5748;53.102;8.456;2023-06-10T04:43:30;1.57;;;1.43;;
11386;SDS011;5748;53.102;8.456;2023-06-10T04:45:58;2.67;;;1.70;;
11386;SDS011;5748;53.102;8.456;2023-06-10T04:48:25;2.00;;;1.80;;
11386;SDS011;5748;53.102;8.456;2023-06-10T04:50:52;1.93;;;1.73;;
11386;SDS011;5748;53.102;8.456;2023-06-10T04:53:19;2.70;;;1.90;;
11386;SDS011;5748;53.102;8.456;2023-06-10T04:55:46;1.90;;;1.70;;
11386;SDS011;5748;53.102;8.456;2023-06-10T04:58:13;1.97;;;1.77;;
11386;SDS011;5748;53.102;8.456;2023-06-10T05:00:41;1.90;;;1.70;;
11386;SDS011;5748;53.102;8.456;2023-06-10T05:03:10;2.93;;;2.10;;
11386;SDS011;5748;53.102;8.456;2023-06-10T05:05:36;2.93;;;2.27;;
11386;SDS011;5748;53.102;8.456;2023-06-10T05:08:03;2.00;;;1.87;;
11386;SDS011;5748;53.102;8.456;2023-06-10T05:10:30;2.27;;;2.07;;
11386;SDS011;5748;53.102;8.456;2023-06-10T05:12:59;2.00;;;1.80;;
11386;SDS011;5748;53.102;8.456;2023-06-10T05:15:26;2.00;;;1.80;;
11386;SDS011;5748;53.102;8.456;2023-06-10T05:17:52;2.30;;;2.03;;
11386;SDS011;5748;53.102;8.456;2023-06-10T05:20:21;2.07;;;1.87;;
11386;SDS011;5748;53.102;8.456;2023-06-10T05:22:48;2.33;;;2.07;;
11386;SDS011;5748;53.102;8.456;2023-06-10T05:25:15;2.80;;;2.43;;
11386;SDS011;5748;53.102;8.456;2023-06-10T05:27:42;2.83;;;2.53;;
11386;SDS011;5748;53.102;8.456;2023-06-10T05:30:09;2.67;;;2.40;;
11386;SDS011;5748;53.102;8.456;2023-06-10T05:32:37;2.93;;;2.67;;
11386;SDS011;5748;53.102;8.456;2023-06-10T05:35:04;3.20;;;2.90;;
11386;SDS011;5748;53.102;8.456;2023-06-10T05:37:34;3.30;;;3.00;;
11386;SDS011;5748;53.102;8.456;2023-06-10T05:40:01;3.27;;;2.97;;
11386;SDS011;5748;53.102;8.456;2023-06-10T05:42:30;3.33;;;3.03;;
11386;SDS011;5748;53.102;8.456;2023-06-10T05:44:57;4.57;;;4.18;;
11386;SDS011;5748;53.102;8.456;2023-06-10T05:47:24;4.10;;;3.70;;
11386;SDS011;5748;53.102;8.456;2023-06-10T05:49:51;4.67;;;4.27;;
11386;SDS011;5748;53.102;8.456;2023-06-10T05:52:18;5.23;;;4.83;;
11386;SDS011;5748;53.102;8.456;2023-06-10T05:54:46;5.23;;;4.73;;
11386;SDS011;5748;53.102;8.456;2023-06-10T05:57:13;4.57;;;4.10;;
11386;SDS011;5748;53.102;8.456;2023-06-10T05:59:40;4.27;;;3.87;;
11386;SDS011;5748;53.102;8.456;2023-06-10T06:02:07;4.30;;;3.90;;
11386;SDS011;5748;53.102;8.456;2023-06-10T06:04:34;3.53;;;3.23;;
11386;SDS011;5748;53.102;8.456;2023-06-10T06:07:01;3.50;;;3.20;;
11386;SDS011;5748;53.102;8.456;2023-06-10T06:09:28;3.50;;;3.20;;
11386;SDS011;5748;53.102;8.456;2023-06-10T06:11:56;3.10;;;2.80;;
11386;SDS011;5748;53.102;8.456;2023-06-10T06:14:23;2.63;;;2.43;;
11386;SDS011;5748;53.102;8.456;2023-06-10T06:16:50;2.60;;;2.40;;
11386;SDS011;5748;53.102;8.456;2023-06-10T06:19:17;2.57;;;2.37;;
11386;SDS011;5748;53.102;8.456;2023-06-10T06:21:44;2.80;;;2.60;;
11386;SDS011;5748;53.102;8.456;2023-06-10T06:24:11;2.80;;;2.60;;
11386;SDS011;5748;53.102;8.456;2023-06-10T06:26:37;2.60;;;2.40;;
11386;SDS011;5748;53.102;8.456;2023-06-10T06:29:06;2.93;;;2.20;;
11386;SDS011;5748;53.102;8.456;2023-06-10T06:31:33;2.63;;;2.43;;
11386;SDS011;5748;53.102;8.456;2023-06-10T06:34:00;3.17;;;2.90;;
11386;SDS011;5748;53.102;8.456;2023-06-10T06:36:27;3.87;;;3.57;;
11386;SDS011;5748;53.102;8.456;2023-06-10T06:38:54;2.60;;;2.40;;
11386;SDS011;5748;53.102;8.456;2023-06-10T06:41:21;2.60;;;2.40;;
11386;SDS011;5748;53.102;8.456;2023-06-10T06:43:48;2.80;;;2.60;;
11386;SDS011;5748;53.102;8.456;2023-06-10T06:46:16;3.57;;;3.27;;
11386;SDS011;5748;53.102;8.456;2023-06-10T06:48:43;4.00;;;3.63;;
11386;SDS011;5748;53.102;8.456;2023-06-10T06:51:10;3.60;;;3.30;;
11386;SDS011;5748;53.102;8.456;2023-06-10T06:53:37;2.80;;;2.60;;
11386;SDS011;5748;53.102;8.456;2023-06-10T06:56:09;2.30;;;2.10;;
11386;SDS011;5748;53.102;8.456;2023-06-10T06:58:36;4.00;;;3.23;;
11386;SDS011;5748;53.102;8.456;2023-06-10T07:01:03;3.40;;;3.10;;
11386;SDS011;5748;53.102;8.456;2023-06-10T07:03:31;2.90;;;2.70;;
11386;SDS011;5748;53.102;8.456;2023-06-10T07:05:58;3.70;;;2.97;;
11386;SDS011;5748;53.102;8.456;2023-06-10T07:08:25;3.00;;;2.70;;
11386;SDS011;5748;53.102;8.456;2023-06-10T07:10:53;3.40;;;3.10;;
11386;SDS011;5748;53.102;8.456;2023-06-10T07:13:19;4.07;;;3.70;;
11386;SDS011;5748;53.102;8.456;2023-06-10T07:15:46;3.70;;;3.40;;
11386;SDS011;5748;53.102;8.456;2023-06-10T07:18:14;3.47;;;3.08;;
11386;SDS011;5748;53.102;8.456;2023-06-10T07:20:43;3.05;;;2.78;;
11386;SDS011;5748;53.102;8.456;2023-06-10T07:23:10;3.35;;;2.90;;
11386;SDS011;5748;53.102;8.456;2023-06-10T07:25:37;3.13;;;2.83;;
11386;SDS011;5748;53.102;8.456;2023-06-10T07:28:04;3.38;;;3.08;;
11386;SDS011;5748;53.102;8.456;2023-06-10T07:30:31;3.33;;;2.95;;
11386;SDS011;5748;53.102;8.456;2023-06-10T07:32:58;3.58;;;3.28;;
11386;SDS011;5748;53.102;8.456;2023-06-10T07:35:25;4.28;;;3.70;;
11386;SDS011;5748;53.102;8.456;2023-06-10T07:37:53;3.95;;;3.60;;
11386;SDS011;5748;53.102;8.456;2023-06-10T07:40:20;3.35;;;3.05;;
11386;SDS011;5748;53.102;8.456;2023-06-10T07:42:47;3.35;;;3.05;;
11386;SDS011;5748;53.102;8.456;2023-06-10T07:45:14;2.80;;;2.60;;
11386;SDS011;5748;53.102;8.456;2023-06-10T07:47:42;3.85;;;2.33;;
11386;SDS011;5748;53.102;8.456;2023-06-10T07:50:10;2.80;;;2.60;;
11386;SDS011;5748;53.102;8.456;2023-06-10T07:52:36;3.28;;;2.70;;
11386;SDS011;5748;53.102;8.456;2023-06-10T07:55:05;2.35;;;2.15;;
11386;SDS011;5748;53.102;8.456;2023-06-10T07:57:33;2.30;;;2.10;;
11386;SDS011;5748;53.102;8.456;2023-06-10T08:00:01;2.15;;;1.95;;
11386;SDS011;5748;53.102;8.456;2023-06-10T08:02:30;1.80;;;1.70;;
11386;SDS011;5748;53.102;8.456;2023-06-10T08:04:57;1.90;;;1.45;;
11386;SDS011;5748;53.102;8.456;2023-06-10T08:07:24;1.50;;;1.40;;
11386;SDS011;5748;53.102;8.456;2023-06-10T08:09:51;1.38;;;1.27;;
11386;SDS011;5748;53.102;8.456;2023-06-10T08:12:19;2.75;;;1.85;;
11386;SDS011;5748;53.102;8.456;2023-06-10T08:14:46;2.88;;;1.80;;
11386;SDS011;5748;53.102;8.456;2023-06-10T08:17:13;2.15;;;1.60;;
11386;SDS011;5748;53.102;8.456;2023-06-10T08:19:40;1.40;;;1.30;;
11386;SDS011;5748;53.102;8.456;2023-06-10T08:22:07;1.42;;;1.33;;
11386;SDS011;5748;53.102;8.456;2023-06-10T08:24:35;2.30;;;1.80;;
11386;SDS011;5748;53.102;8.456;2023-06-10T08:27:02;1.63;;;1.52;;
11386;SDS011;5748;53.102;8.456;2023-06-10T08:29:32;1.90;;;1.48;;
11386;SDS011;5748;53.102;8.456;2023-06-10T08:31:59;1.60;;;1.27;;
11386;SDS011;5748;53.102;8.456;2023-06-10T08:34:26;1.40;;;1.30;;
11386;SDS011;5748;53.102;8.456;2023-06-10T08:36:53;1.38;;;1.27;;
11386;SDS011;5748;53.102;8.456;2023-06-10T08:39:20;1.05;;;0.95;;
11386;SDS011;5748;53.102;8.456;2023-06-10T08:41:50;1.40;;;1.30;;
11386;SDS011;5748;53.102;8.456;2023-06-10T08:44:27;1.58;;;1.40;;
11386;SDS011;5748;53.102;8.456;2023-06-10T08:46:57;1.80;;;1.40;;
11386;SDS011;5748;53.102;8.456;2023-06-10T08:49:26;1.60;;;1.50;;
11386;SDS011;5748;53.102;8.456;2023-06-10T08:51:58;1.50;;;1.40;;
11386;SDS011;5748;53.102;8.456;2023-06-10T08:54:27;1.40;;;1.30;;
11386;SDS011;5748;53.102;8.456;2023-06-10T08:56:57;2.55;;;1.60;;
11386;SDS011;5748;53.102;8.456;2023-06-10T08:59:26;1.80;;;1.58;;
11386;SDS011;5748;53.102;8.456;2023-06-10T09:01:53;1.95;;;1.70;;
11386;SDS011;5748;53.102;8.456;2023-06-10T09:04:22;1.52;;;1.42;;
11386;SDS011;5748;53.102;8.456;2023-06-10T09:06:51;1.65;;;1.55;;
11386;SDS011;5748;53.102;8.456;2023-06-10T09:09:18;1.98;;;1.50;;
11386;SDS011;5748;53.102;8.456;2023-06-10T09:11:46;1.73;;;1.60;;
11386;SDS011;5748;53.102;8.456;2023-06-10T09:14:13;1.50;;;1.40;;
11386;SDS011;5748;53.102;8.456;2023-06-10T09:16:41;1.40;;;1.30;;
11386;SDS011;5748;53.102;8.456;2023-06-10T09:19:10;1.40;;;1.30;;
11386;SDS011;5748;53.102;8.456;2023-06-10T09:21:39;1.27;;;1.17;;
11386;SDS011;5748;53.102;8.456;2023-06-10T09:24:06;1.50;;;1.40;;
11386;SDS011;5748;53.102;8.456;2023-06-10T09:26:33;1.52;;;1.20;;
11386;SDS011;5748;53.102;8.456;2023-06-10T09:29:02;1.20;;;1.10;;
11386;SDS011;5748;53.102;8.456;2023-06-10T09:31:31;1.00;;;1.00;;
11386;SDS011;5748;53.102;8.456;2023-06-10T09:34:07;1.67;;;1.23;;
11386;SDS011;5748;53.102;8.456;2023-06-10T09:36:35;1.42;;;1.20;;
11386;SDS011;5748;53.102;8.456;2023-06-10T09:39:05;1.00;;;1.00;;
11386;SDS011;5748;53.102;8.456;2023-06-10T09:41:43;1.33;;;1.17;;
11386;SDS011;5748;53.102;8.456;2023-06-10T09:44:14;1.42;;;1.20;;
11386;SDS011;5748;53.102;8.456;2023-06-10T10:38:12;1.70;;;1.60;;
11386;SDS011;5748;53.102;8.456;2023-06-10T10:40:39;1.65;;;1.55;;
11386;SDS011;5748;53.102;8.456;2023-06-10T10:43:08;1.90;;;1.60;;
11386;SDS011;5748;53.102;8.456;2023-06-10T10:45:35;1.67;;;1.58;;
11386;SDS011;5748;53.102;8.456;2023-06-10T10:48:04;1.50;;;1.40;;
11386;SDS011;5748;53.102;8.456;2023-06-10T10:50:36;1.52;;;1.42;;
11386;SDS011;5748;53.102;8.456;2023-06-10T10:53:07;1.40;;;1.30;;
11386;SDS011;5748;53.102;8.456;2023-06-10T10:55:35;1.88;;;1.77;;
11386;SDS011;5748;53.102;8.456;2023-06-10T10:58:03;1.55;;;1.40;;
11386;SDS011;5748;53.102;8.456;2023-06-10T11:00:32;1.20;;;1.20;;
11386;SDS011;5748;53.102;8.456;2023-06-10T11:03:04;1.23;;;1.10;;
11386;SDS011;5748;53.102;8.456;2023-06-10T11:05:37;1.75;;;1.40;;
11386;SDS011;5748;53.102;8.456;2023-06-10T11:08:06;1.60;;;1.50;;
11386;SDS011;5748;53.102;8.456;2023-06-10T11:10:36;1.30;;;1.20;;
11386;SDS011;5748;53.102;8.456;2023-06-10T11:13:08;1.30;;;1.20;;
11386;SDS011;5748;53.102;8.456;2023-06-10T11:15:38;1.60;;;1.50;;
11386;SDS011;5748;53.102;8.456;2023-06-10T11:18:12;1.15;;;1.10;;
11386;SDS011;5748;53.102;8.456;2023-06-10T11:20:55;1.33;;;1.23;;
11386;SDS011;5748;53.102;8.456;2023-06-10T11:23:25;1.10;;;1.00;;
11386;SDS011;5748;53.102;8.456;2023-06-10T11:26:12;1.27;;;1.17;;
11386;SDS011;5748;53.102;8.456;2023-06-10T11:31:46;1.40;;;1.30;;
11386;SDS011;5748;53.102;8.456;2023-06-10T11:34:21;1.10;;;1.10;;
11386;SDS011;5748;53.102;8.456;2023-06-10T11:36:50;2.78;;;1.20;;
11386;SDS011;5748;53.102;8.456;2023-06-10T11:39:19;1.30;;;1.20;;
11386;SDS011;5748;53.102;8.456;2023-06-10T11:41:58;1.30;;;1.20;;
11386;SDS011;5748;53.102;8.456;2023-06-10T11:44:27;1.00;;;1.00;;
11386;SDS011;5748;53.102;8.456;2023-06-10T11:46:57;1.10;;;1.00;;
11386;SDS011;5748;53.102;8.456;2023-06-10T11:49:24;1.38;;;1.27;;
11386;SDS011;5748;53.102;8.456;2023-06-10T11:51:51;1.10;;;1.10;;
11386;SDS011;5748;53.102;8.456;2023-06-10T11:54:18;0.85;;;0.85;;
11386;SDS011;5748;53.102;8.456;2023-06-10T11:56:46;1.13;;;1.10;;
11386;SDS011;5748;53.102;8.456;2023-06-10T11:59:15;1.20;;;1.20;;
11386;SDS011;5748;53.102;8.456;2023-06-10T12:01:42;1.27;;;1.17;;
11386;SDS011;5748;53.102;8.456;2023-06-10T12:04:11;1.50;;;1.40;;
11386;SDS011;5748;53.102;8.456;2023-06-10T12:06:40;1.30;;;1.20;;
11386;SDS011;5748;53.102;8.456;2023-06-10T12:09:16;1.88;;;1.40;;
11386;SDS011;5748;53.102;8.456;2023-06-10T12:11:45;1.10;;;1.10;;
11386;SDS011;5748;53.102;8.456;2023-06-10T12:14:16;1.40;;;1.30;;
11386;SDS011;5748;53.102;8.456;2023-06-10T12:17:16;1.15;;;0.98;;
11386;SDS011;5748;53.102;8.456;2023-06-10T12:19:43;1.13;;;1.08;;
11386;SDS011;5748;53.102;8.456;2023-06-10T12:22:10;1.23;;;1.10;;
11386;SDS011;5748;53.102;8.456;2023-06-10T12:24:43;1.38;;;1.27;;
11386;SDS011;5748;53.102;8.456;2023-06-10T12:27:11;1.80;;;1.52;;
11386;SDS011;5748;53.102;8.456;2023-06-10T12:29:39;1.50;;;1.40;;
11386;SDS011;5748;53.102;8.456;2023-06-10T12:32:18;1.55;;;1.40;;
11386;SDS011;5748;53.102;8.456;2023-06-10T12:34:48;1.40;;;1.30;;
11386;SDS011;5748;53.102;8.456;2023-06-10T12:37:16;1.40;;;1.30;;
11386;SDS011;5748;53.102;8.456;2023-06-10T12:39:43;1.20;;;1.10;;
11386;SDS011;5748;53.102;8.456;2023-06-10T12:42:18;1.70;;;1.10;;
11386;SDS011;5748;53.102;8.456;2023-06-10T12:44:53;1.10;;;1.00;;
11386;SDS011;5748;53.102;8.456;2023-06-10T12:47:28;1.00;;;0.90;;
11386;SDS011;5748;53.102;8.456;2023-06-10T12:49:57;1.00;;;0.90;;
11386;SDS011;5748;53.102;8.456;2023-06-10T12:52:25;1.17;;;1.08;;
11386;SDS011;5748;53.102;8.456;2023-06-10T12:54:52;1.20;;;1.10;;
11386;SDS011;5748;53.102;8.456;2023-06-10T12:57:19;2.50;;;1.17;;
11386;SDS011;5748;53.102;8.456;2023-06-10T12:59:46;1.30;;;1.20;;
11386;SDS011;5748;53.102;8.456;2023-06-10T13:02:18;1.50;;;1.27;;
11386;SDS011;5748;53.102;8.456;2023-06-10T13:04:48;1.50;;;1.40;;
11386;SDS011;5748;53.102;8.456;2023-06-10T13:07:16;1.40;;;1.30;;
11386;SDS011;5748;53.102;8.456;2023-06-10T13:09:43;1.60;;;1.50;;
11386;SDS011;5748;53.102;8.456;2023-06-10T13:12:13;2.30;;;1.40;;
11386;SDS011;5748;53.102;8.456;2023-06-10T13:14:42;1.38;;;1.25;;
11386;SDS011;5748;53.102;8.456;2023-06-10T13:17:10;1.30;;;1.20;;
11386;SDS011;5748;53.102;8.456;2023-06-10T13:19:38;1.27;;;1.13;;
11386;SDS011;5748;53.102;8.456;2023-06-10T13:22:05;1.63;;;1.23;;
11386;SDS011;5748;53.102;8.456;2023-06-10T13:24:32;1.02;;;1.02;;
11386;SDS011;5748;53.102;8.456;2023-06-10T13:26:59;2.28;;;1.20;;
11386;SDS011;5748;53.102;8.456;2023-06-10T13:29:26;1.27;;;1.17;;
11386;SDS011;5748;53.102;8.456;2023-06-10T13:31:53;2.00;;;1.25;;
11386;SDS011;5748;53.102;8.456;2023-06-10T13:34:20;1.30;;;1.20;;
11386;SDS011;5748;53.102;8.456;2023-06-10T13:36:48;1.20;;;1.10;;
11386;SDS011;5748;53.102;8.456;2023-06-10T13:39:15;1.30;;;1.10;;
11386;SDS011;5748;53.102;8.456;2023-06-10T13:41:42;1.30;;;1.20;;
11386;SDS011;5748;53.102;8.456;2023-06-10T13:44:09;1.35;;;1.25;;
11386;SDS011;5748;53.102;8.456;2023-06-10T13:46:36;1.50;;;1.40;;
11386;SDS011;5748;53.102;8.456;2023-06-10T13:49:03;1.40;;;1.30;;
11386;SDS011;5748;53.102;8.456;2023-06-10T13:51:30;1.92;;;1.50;;
11386;SDS011;5748;53.102;8.456;2023-06-10T13:53:58;1.50;;;1.40;;
11386;SDS011;5748;53.102;8.456;2023-06-10T13:56:25;1.65;;;1.40;;
11386;SDS011;5748;53.102;8.456;2023-06-10T13:58:52;1.52;;;1.20;;
11386;SDS011;5748;53.102;8.456;2023-06-10T14:01:19;1.50;;;1.40;;
11386;SDS011;5748;53.102;8.456;2023-06-10T14:03:46;2.13;;;1.75;;
11386;SDS011;5748;53.102;8.456;2023-06-10T14:06:13;1.40;;;1.30;;
11386;SDS011;5748;53.102;8.456;2023-06-10T14:08:43;1.50;;;1.40;;
11386;SDS011;5748;53.102;8.456;2023-06-10T14:11:12;1.30;;;1.20;;
11386;SDS011;5748;53.102;8.456;2023-06-10T14:13:42;1.50;;;1.40;;
11386;SDS011;5748;53.102;8.456;2023-06-10T14:16:09;1.73;;;1.10;;
11386;SDS011;5748;53.102;8.456;2023-06-10T14:18:36;1.20;;;1.20;;
11386;SDS011;5748;53.102;8.456;2023-06-10T14:21:03;1.50;;;1.40;;
11386;SDS011;5748;53.102;8.456;2023-06-10T14:23:30;1.27;;;1.17;;
11386;SDS011;5748;53.102;8.456;2023-06-10T14:25:58;1.67;;;1.38;;
11386;SDS011;5748;53.102;8.456;2023-06-10T14:31:15;1.30;;;1.20;;
11386;SDS011;5748;53.102;8.456;2023-06-10T14:33:42;2.53;;;1.45;;
11386;SDS011;5748;53.102;8.456;2023-06-10T14:36:09;2.90;;;1.35;;
11386;SDS011;5748;53.102;8.456;2023-06-10T14:38:37;1.50;;;1.40;;
11386;SDS011;5748;53.102;8.456;2023-06-10T14:41:03;1.58;;;1.40;;
11386;SDS011;5748;53.102;8.456;2023-06-10T14:43:31;1.75;;;1.65;;
11386;SDS011;5748;53.102;8.456;2023-06-10T14:45:59;1.55;;;1.45;;
11386;SDS011;5748;53.102;8.456;2023-06-10T14:48:26;1.40;;;1.30;;
11386;SDS011;5748;53.102;8.456;2023-06-10T14:50:53;1.50;;;1.40;;
11386;SDS011;5748;53.102;8.456;2023-06-10T14:53:20;2.13;;;1.50;;
11386;SDS011;5748;53.102;8.456;2023-06-10T14:55:47;1.45;;;1.35;;
11386;SDS011;5748;53.102;8.456;2023-06-10T14:58:14;1.70;;;1.60;;
11386;SDS011;5748;53.102;8.456;2023-06-10T15:00:41;1.60;;;1.50;;
11386;SDS011;5748;53.102;8.456;2023-06-10T15:03:10;1.40;;;1.30;;
11386;SDS011;5748;53.102;8.456;2023-06-10T15:05:37;1.42;;;1.33;;
11386;SDS011;5748;53.102;8.456;2023-06-10T15:08:04;1.95;;;1.55;;
11386;SDS011;5748;53.102;8.456;2023-06-10T15:10:32;1.50;;;1.40;;
11386;SDS011;5748;53.102;8.456;2023-06-10T15:12:59;2.08;;;1.73;;
11386;SDS011;5748;53.102;8.456;2023-06-10T15:15:26;1.40;;;1.30;;
11386;SDS011;5748;53.102;8.456;2023-06-10T15:17:53;1.60;;;1.50;;
11386;SDS011;5748;53.102;8.456;2023-06-10T15:20:22;1.50;;;1.40;;
11386;SDS011;5748;53.102;8.456;2023-06-10T15:22:49;1.42;;;1.33;;
11386;SDS011;5748;53.102;8.456;2023-06-10T15:25:16;1.60;;;1.50;;
11386;SDS011;5748;53.102;8.456;2023-06-10T15:27:43;1.45;;;1.35;;
11386;SDS011;5748;53.102;8.456;2023-06-10T15:30:10;1.50;;;1.40;;
11386;SDS011;5748;53.102;8.456;2023-06-10T15:32:37;1.55;;;1.45;;
11386;SDS011;5748;53.102;8.456;2023-06-10T15:35:04;1.50;;;1.40;;
11386;SDS011;5748;53.102;8.456;2023-06-10T15:37:33;1.75;;;1.65;;
11386;SDS011;5748;53.102;8.456;2023-06-10T15:40:00;2.00;;;1.77;;
11386;SDS011;5748;53.102;8.456;2023-06-10T15:42:27;1.60;;;1.50;;
11386;SDS011;5748;53.102;8.456;2023-06-10T15:44:54;1.70;;;1.60;;
11386;SDS011;5748;53.102;8.456;2023-06-10T15:47:22;1.67;;;1.58;;
11386;SDS011;5748;53.102;8.456;2023-06-10T15:49:49;1.70;;;1.60;;
11386;SDS011;5748;53.102;8.456;2023-06-10T15:52:16;1.80;;;1.70;;
11386;SDS011;5748;53.102;8.456;2023-06-10T15:54:44;1.70;;;1.60;;
11386;SDS011;5748;53.102;8.456;2023-06-10T15:57:11;1.80;;;1.70;;
11386;SDS011;5748;53.102;8.456;2023-06-10T15:59:38;1.85;;;1.75;;
11386;SDS011;5748;53.102;8.456;2023-06-10T16:02:05;1.63;;;1.52;;
11386;SDS011;5748;53.102;8.456;2023-06-10T16:04:32;2.10;;;1.90;;